createdAt,value
2018-10-17T00:00:49.071Z,101284.48
2018-10-17T00:03:16.239Z,101285.22
2018-10-17T00:05:43.407Z,101294.97
2018-10-17T00:08:10.478Z,101287.97
2018-10-17T00:10:37.587Z,101287.97
2018-10-17T00:13:04.691Z,101292.79
2018-10-17T00:15:31.780Z,101293.42
2018-10-17T00:17:58.968Z,101282.75
2018-10-17T00:20:26.055Z,101287.29
2018-10-17T00:22:53.228Z,101280.73
2018-10-17T00:25:20.576Z,101279.19
2018-10-17T00:27:47.752Z,101271.14
2018-10-17T00:30:14.839Z,101269.75
2018-10-17T00:32:41.949Z,101270.95
2018-10-17T00:35:09.523Z,101268.18
2018-10-17T00:37:36.596Z,101267.72
2018-10-17T00:40:03.745Z,101267.29
2018-10-17T00:42:30.837Z,101264.76
2018-10-17T00:44:58.100Z,101268.28
2018-10-17T00:47:25.168Z,101265.92
2018-10-17T00:49:52.692Z,101266.19
2018-10-17T00:52:19.764Z,101261.70
2018-10-17T00:54:47.163Z,101259.40
2018-10-17T00:57:14.253Z,101261.13
2018-10-17T00:59:41.344Z,101259.07
2018-10-17T01:02:08.541Z,101253.67
2018-10-17T01:04:35.629Z,101252.14
2018-10-17T01:07:02.753Z,101255.62
2018-10-17T01:09:29.864Z,101249.76
2018-10-17T01:11:56.956Z,101250.63
2018-10-17T01:14:24.065Z,101251.30
2018-10-17T01:16:51.178Z,101252.02
2018-10-17T01:19:18.352Z,101254.36
2018-10-17T01:21:45.515Z,101250.11
2018-10-17T01:24:12.913Z,101251.09
2018-10-17T01:26:40.104Z,101248.75
2018-10-17T01:29:07.309Z,101240.47
2018-10-17T01:31:34.445Z,101239.94
2018-10-17T01:34:01.586Z,101241.30
2018-10-17T01:36:28.691Z,101243.10
2018-10-17T01:38:55.787Z,101245.41
2018-10-17T01:41:22.877Z,101239.49
2018-10-17T01:43:49.961Z,101238.50
2018-10-17T01:46:17.085Z,101242.83
2018-10-17T01:48:44.170Z,101241.33
2018-10-17T01:51:11.236Z,101241.79
2018-10-17T01:53:38.410Z,101244.71
2018-10-17T01:56:05.500Z,101243.52
2018-10-17T01:58:32.813Z,101241.16
2018-10-17T02:00:59.915Z,101241.10
2018-10-17T02:03:27.079Z,101247.65
2018-10-17T02:05:54.177Z,101244.26
2018-10-17T02:08:21.603Z,101243.06
2018-10-17T02:10:48.689Z,101238.67
2018-10-17T02:13:19.262Z,101241.89
2018-10-17T02:15:53.603Z,101245.74
2018-10-17T02:18:21.339Z,101248.58
2018-10-17T02:20:48.792Z,101244.89
2018-10-17T02:23:15.949Z,101238.17
2018-10-17T02:25:43.390Z,101239.95
2018-10-17T02:28:10.500Z,101237.53
2018-10-17T02:30:44.806Z,101237.02
2018-10-17T02:33:11.971Z,101235.93
2018-10-17T02:35:39.069Z,101236.56
2018-10-17T02:38:06.176Z,101235.12
2018-10-17T02:40:33.409Z,101243.69
2018-10-17T02:43:00.682Z,101244.71
2018-10-17T02:45:27.747Z,101245.57
2018-10-17T02:47:54.812Z,101243.45
2018-10-17T02:50:21.904Z,101245.57
2018-10-17T02:52:48.961Z,101251.75
2018-10-17T02:55:16.119Z,101252.62
2018-10-17T02:57:43.264Z,101239.41
2018-10-17T03:00:10.327Z,101244.14
2018-10-17T03:02:37.646Z,101242.80
2018-10-17T03:05:05.028Z,101243.45
2018-10-17T03:07:32.247Z,101245.75
2018-10-17T03:09:59.362Z,101241.45
2018-10-17T03:12:26.436Z,101233.41
2018-10-17T03:14:53.499Z,101231.52
2018-10-17T03:17:20.580Z,101236.44
2018-10-17T03:19:48.176Z,101240.75
2018-10-17T03:22:15.448Z,101239.88
2018-10-17T03:24:42.569Z,101235.03
2018-10-17T03:27:09.752Z,101234.85
2018-10-17T03:29:36.816Z,101231.61
2018-10-17T03:32:04.096Z,101236.34
2018-10-17T03:34:31.229Z,101233.48
2018-10-17T03:36:58.675Z,101232.59
2018-10-17T03:39:25.871Z,101232.84
2018-10-17T03:41:53.069Z,101235.30
2018-10-17T03:44:20.176Z,101233.72
2018-10-17T03:46:47.285Z,101239.03
2018-10-17T03:49:14.418Z,101235.72
2018-10-17T03:51:41.469Z,101236.51
2018-10-17T03:54:08.544Z,101240.75
2018-10-17T03:56:35.701Z,101243.91
2018-10-17T03:59:02.921Z,101238.97
2018-10-17T04:01:30.061Z,101245.28
2018-10-17T04:03:57.608Z,101247.46
2018-10-17T04:06:24.735Z,101243.56
2018-10-17T04:08:52.112Z,101250.95
2018-10-17T04:11:19.267Z,101245.33
2018-10-17T04:13:46.407Z,101253.09
2018-10-17T04:16:13.577Z,101252.80
2018-10-17T04:18:40.738Z,101257.34
2018-10-17T04:21:07.836Z,101256.91
2018-10-17T04:23:34.935Z,101256.25
2018-10-17T04:26:02.047Z,101257.78
2018-10-17T04:28:29.124Z,101258.67
2018-10-17T04:30:56.235Z,101256.87
2018-10-17T04:33:23.270Z,101264.80
2018-10-17T04:35:50.516Z,101264.85
2018-10-17T04:38:17.767Z,101261.91
2018-10-17T04:40:44.844Z,101258.05
2018-10-17T04:43:12.113Z,101261.95
2018-10-17T04:45:39.269Z,101252.42
2018-10-17T04:48:06.390Z,101246.25
2018-10-17T04:50:33.506Z,101247.48
2018-10-17T04:53:00.906Z,101245.81
2018-10-17T04:55:27.956Z,101235.32
2018-10-17T04:57:55.115Z,101236.98
2018-10-17T05:00:22.280Z,101240.41
2018-10-17T05:02:49.416Z,101242.50
2018-10-17T05:05:16.602Z,101252.23
2018-10-17T05:07:43.613Z,101248.88
2018-10-17T05:10:10.865Z,101251.39
2018-10-17T05:12:38.108Z,101250.28
2018-10-17T05:15:05.310Z,101250.45
2018-10-17T05:17:32.528Z,101253.33
2018-10-17T05:19:59.783Z,101252.86
2018-10-17T05:22:27.084Z,101257.69
2018-10-17T05:24:54.333Z,101258.29
2018-10-17T05:27:21.423Z,101264.61
2018-10-17T05:29:48.667Z,101263.41
2018-10-17T05:32:16.099Z,101265.48
2018-10-17T05:34:43.179Z,101267.53
2018-10-17T05:37:10.324Z,101269.62
2018-10-17T05:39:37.436Z,101271.18
2018-10-17T05:42:04.907Z,101267.73
2018-10-17T05:44:32.167Z,101271.17
2018-10-17T05:46:59.305Z,101274.09
2018-10-17T05:49:26.319Z,101275.60
2018-10-17T05:51:53.417Z,101278.67
2018-10-17T05:54:20.514Z,101275.83
2018-10-17T05:56:47.875Z,101274.17
2018-10-17T05:59:15.061Z,101273.95
2018-10-17T06:01:42.541Z,101285.05
2018-10-17T06:04:09.632Z,101281.16
2018-10-17T06:06:36.896Z,101279.83
2018-10-17T06:09:06.341Z,101277.23
2018-10-17T06:11:33.451Z,101278.49
2018-10-17T06:14:00.914Z,101278.42
2018-10-17T06:16:28.363Z,101282.77
2018-10-17T06:18:55.565Z,101278.02
2018-10-17T06:21:22.613Z,101279.25
2018-10-17T06:23:49.815Z,101272.36
2018-10-17T06:26:16.987Z,101279.58
2018-10-17T06:28:44.140Z,101279.58
2018-10-17T06:31:11.343Z,101283.98
2018-10-17T06:33:38.384Z,101285.84
2018-10-17T06:36:05.480Z,101281.95
2018-10-17T06:38:32.645Z,101287.81
2018-10-17T06:40:59.753Z,101284.48
2018-10-17T06:43:27.212Z,101283.41
2018-10-17T06:45:54.596Z,101284.22
2018-10-17T06:48:21.944Z,101275.52
2018-10-17T06:50:49.044Z,101274.87
2018-10-17T06:53:16.276Z,101278.32
2018-10-17T06:55:43.483Z,101281.02
2018-10-17T06:58:11.132Z,101280.15
2018-10-17T07:00:38.208Z,101277.86
2018-10-17T07:03:05.292Z,101281.19
2018-10-17T07:05:32.360Z,101279.46
2018-10-17T07:07:59.452Z,101270.55
2018-10-17T07:10:26.652Z,101273.94
2018-10-17T07:12:54.113Z,101280.73
2018-10-17T07:15:21.212Z,101274.27
2018-10-17T07:17:48.259Z,101280.55
2018-10-17T07:20:15.473Z,101281.41
2018-10-17T07:22:42.565Z,101279.49
2018-10-17T07:25:09.801Z,101280.30
2018-10-17T07:27:36.963Z,101282.38
2018-10-17T07:30:05.701Z,101282.68
2018-10-17T07:32:33.484Z,101282.54
2018-10-17T07:35:00.735Z,101287.42
2018-10-17T07:37:28.829Z,101241.17
2018-10-17T07:39:56.180Z,101278.86
2018-10-17T07:42:24.048Z,101282.84
2018-10-17T07:44:51.154Z,101281.59
2018-10-17T07:47:18.251Z,101287.44
2018-10-17T07:49:45.324Z,101278.34
2018-10-17T07:52:12.506Z,101273.80
2018-10-17T07:54:39.675Z,101285.41
2018-10-17T07:57:06.833Z,101285.33
2018-10-17T07:59:33.933Z,101286.09
2018-10-17T08:02:01.118Z,101286.59
2018-10-17T08:04:28.223Z,101287.98
2018-10-17T08:06:55.419Z,101293.05
2018-10-17T08:09:22.486Z,101285.66
2018-10-17T08:11:49.672Z,101292.09
2018-10-17T08:14:16.878Z,101292.85
2018-10-17T08:16:44.255Z,101290.73
2018-10-17T08:19:11.403Z,101291.04
2018-10-17T08:21:38.516Z,101289.58
2018-10-17T08:24:05.864Z,101292.60
2018-10-17T08:26:32.907Z,101291.63
2018-10-17T08:29:00.071Z,101296.53
2018-10-17T08:31:27.172Z,101303.33
2018-10-17T08:33:54.328Z,101305.56
2018-10-17T08:36:21.677Z,101298.88
2018-10-17T08:38:49.184Z,101295.63
2018-10-17T08:41:16.586Z,101294.09
2018-10-17T08:43:43.676Z,101293.44
2018-10-17T08:46:11.355Z,101293.67
2018-10-17T08:48:38.433Z,101294.68
2018-10-17T08:51:05.655Z,101291.08
2018-10-17T08:53:32.819Z,101299.45
2018-10-17T08:56:00.099Z,101300.12
2018-10-17T08:58:27.180Z,101305.94
2018-10-17T09:00:54.374Z,101304.81
2018-10-17T09:03:21.539Z,101308.28
2018-10-17T09:05:48.620Z,101300.96
2018-10-17T09:08:15.856Z,101304.83
2018-10-17T09:10:43.056Z,101305.16
2018-10-17T09:13:10.773Z,101306.86
2018-10-17T09:15:38.543Z,101311.98
2018-10-17T09:18:05.132Z,101319.02
2018-10-17T09:20:32.567Z,101315.56
2018-10-17T09:23:00.232Z,101314.15
2018-10-17T09:25:27.391Z,101306.92
2018-10-17T09:27:55.194Z,101314.16
2018-10-17T09:30:22.537Z,101311.67
2018-10-17T09:32:49.925Z,101313.30
2018-10-17T09:35:17.286Z,101312.39
2018-10-17T09:37:44.533Z,101319.79
2018-10-17T09:40:11.662Z,101316.83
2018-10-17T09:42:40.021Z,101319.09
2018-10-17T09:45:08.056Z,101324.30
2018-10-17T09:47:35.160Z,101329.47
2018-10-17T09:50:02.445Z,101329.05
2018-10-17T09:52:29.548Z,101325.47
2018-10-17T09:54:56.792Z,101326.52
2018-10-17T09:57:24.125Z,101325.58
2018-10-17T09:59:51.297Z,101326.03
2018-10-17T10:02:18.402Z,101323.27
2018-10-17T10:04:45.529Z,101320.09
2018-10-17T10:07:13.180Z,101320.23
2018-10-17T10:09:40.351Z,101314.89
2018-10-17T10:12:07.454Z,101322.27
2018-10-17T10:14:35.312Z,101319.34
2018-10-17T10:17:02.475Z,101315.52
2018-10-17T10:19:29.509Z,101315.14
2018-10-17T10:21:57.117Z,101305.52
2018-10-17T10:24:24.248Z,101304.52
2018-10-17T10:26:51.391Z,101301.34
2018-10-17T10:29:18.899Z,101305.83
2018-10-17T10:31:46.456Z,101308.45
2018-10-17T10:34:13.608Z,101307.24
2018-10-17T10:36:40.611Z,101296.83
2018-10-17T10:39:09.031Z,101299.34
2018-10-17T10:41:36.255Z,101303.14
2018-10-17T10:44:03.455Z,101300.39
2018-10-17T10:46:30.555Z,101299.77
2018-10-17T10:48:57.688Z,101298.88
2018-10-17T10:51:24.787Z,101299.77
2018-10-17T10:53:51.924Z,101294.53
2018-10-17T10:56:19.180Z,101289.66
2018-10-17T10:58:46.262Z,101285.52
2018-10-17T11:01:13.292Z,101287.62
2018-10-17T11:03:40.649Z,101281.55
2018-10-17T11:06:08.442Z,101278.59
2018-10-17T11:08:35.509Z,101287.27
2018-10-17T11:11:02.729Z,101285.06
2018-10-17T11:13:29.845Z,101278.66
2018-10-17T11:15:57.040Z,101279.96
2018-10-17T11:18:24.102Z,101279.28
2018-10-17T11:20:51.479Z,101277.72
2018-10-17T11:23:19.493Z,101278.34
2018-10-17T11:25:46.721Z,101271.27
2018-10-17T11:28:13.963Z,101277.53
2018-10-17T11:30:41.714Z,101276.37
2018-10-17T11:33:08.967Z,101274.91
2018-10-17T11:35:36.050Z,101273.73
2018-10-17T11:38:03.264Z,101271.14
2018-10-17T11:40:30.642Z,101272.20
2018-10-17T11:42:57.632Z,101269.83
2018-10-17T11:45:24.676Z,101269.00
2018-10-17T11:47:51.854Z,101266.16
2018-10-17T11:50:18.974Z,101266.08
2018-10-17T11:52:46.500Z,101263.03
2018-10-17T11:55:13.745Z,101266.22
2018-10-17T11:57:41.165Z,101259.32
2018-10-17T12:00:10.093Z,101256.17
2018-10-17T12:02:37.389Z,101256.27
2018-10-17T12:05:07.154Z,101256.61
2018-10-17T12:07:33.953Z,101258.38
2018-10-17T12:10:01.545Z,101248.76
2018-10-17T12:12:28.863Z,101242.64
2018-10-17T12:14:56.232Z,101249.42
2018-10-17T12:17:23.731Z,101243.05
2018-10-17T12:19:51.517Z,101248.38
2018-10-17T12:22:18.524Z,101243.36
2018-10-17T12:24:45.648Z,101241.08
2018-10-17T12:27:12.790Z,101247.95
2018-10-17T12:29:39.814Z,101238.50
2018-10-17T12:32:06.911Z,101238.36
2018-10-17T12:34:35.234Z,101238.78
2018-10-17T12:37:02.385Z,101237.00
2018-10-17T12:39:29.670Z,101229.80
2018-10-17T12:41:56.700Z,101232.55
2018-10-17T12:44:23.929Z,101232.59
2018-10-17T12:46:51.023Z,101232.39
2018-10-17T12:49:18.664Z,101234.92
2018-10-17T12:51:45.745Z,101238.84
2018-10-17T12:54:12.833Z,101245.20
2018-10-17T12:56:39.993Z,101234.70
2018-10-17T12:59:07.129Z,101230.33
2018-10-17T13:01:34.399Z,101233.30
2018-10-17T13:04:01.755Z,101229.66
2018-10-17T13:06:28.841Z,101228.23
2018-10-17T13:08:55.909Z,101227.98
2018-10-17T13:11:23.089Z,101223.73
2018-10-17T13:13:50.076Z,101222.36
2018-10-17T13:16:17.182Z,101223.61
2018-10-17T13:18:44.238Z,101228.38
2018-10-17T13:21:11.431Z,101227.42
2018-10-17T13:23:38.498Z,101226.02
2018-10-17T13:26:05.685Z,101223.96
2018-10-17T13:28:32.772Z,101223.62
2018-10-17T13:30:59.953Z,101223.84
2018-10-17T13:33:27.319Z,101224.13
2018-10-17T13:35:54.665Z,101222.39
2018-10-17T13:38:22.192Z,101219.70
2018-10-17T13:40:49.329Z,101218.82
2018-10-17T13:43:16.589Z,101223.88
2018-10-17T13:45:44.183Z,101220.53
2018-10-17T13:48:11.337Z,101218.36
2018-10-17T13:50:38.508Z,101219.80
2018-10-17T13:53:06.032Z,101216.30
2018-10-17T13:55:33.113Z,101214.46
2018-10-17T13:58:00.305Z,101212.91
2018-10-17T14:00:27.433Z,101212.28
2018-10-17T14:02:54.532Z,101212.05
2018-10-17T14:05:21.609Z,101215.02
2018-10-17T14:07:48.723Z,101210.58
2018-10-17T14:10:15.775Z,101215.11
2018-10-17T14:12:42.855Z,101207.31
2018-10-17T14:15:09.943Z,101211.12
2018-10-17T14:17:37.027Z,101213.57
2018-10-17T14:20:04.207Z,101219.83
2018-10-17T14:22:31.288Z,101215.56
2018-10-17T14:24:58.517Z,101212.94
2018-10-17T14:27:25.619Z,101207.80
2018-10-17T14:29:52.807Z,101218.05
2018-10-17T14:32:19.892Z,101222.09
2018-10-17T14:34:47.095Z,101214.24
2018-10-17T14:37:14.268Z,101214.97
2018-10-17T14:39:41.382Z,101212.63
2018-10-17T14:42:09.229Z,101214.25
2018-10-17T14:44:36.240Z,101211.07
2018-10-17T14:47:03.385Z,101215.09
2018-10-17T14:49:30.533Z,101215.45
2018-10-17T14:51:58.139Z,101215.84
2018-10-17T14:54:25.228Z,101213.96
2018-10-17T14:56:52.342Z,101214.03
2018-10-17T14:59:19.812Z,101218.78
2018-10-17T15:01:46.968Z,101213.66
2018-10-17T15:04:14.126Z,101215.20
2018-10-17T15:06:41.259Z,101222.75
2018-10-17T15:09:08.866Z,101216.63
2018-10-17T15:11:36.685Z,101215.05
2018-10-17T15:14:03.712Z,101214.14
2018-10-17T15:16:30.803Z,101212.67
2018-10-17T15:18:57.976Z,101214.83
2018-10-17T15:21:25.092Z,101217.13
2018-10-17T15:23:52.216Z,101218.48
2018-10-17T15:26:19.512Z,101217.22
2018-10-17T15:28:46.584Z,101214.65
2018-10-17T15:31:13.726Z,101214.92
2018-10-17T15:33:40.778Z,101220.37
2018-10-17T15:36:07.922Z,101219.94
2018-10-17T15:38:35.005Z,101221.03
2018-10-17T15:41:02.129Z,101222.94
2018-10-17T15:43:29.214Z,101222.67
2018-10-17T15:45:56.280Z,101224.28
2018-10-17T15:48:23.382Z,101219.43
2018-10-17T15:50:50.544Z,101225.15
2018-10-17T15:53:17.676Z,101229.63
2018-10-17T15:55:44.945Z,101224.26
2018-10-17T15:58:12.010Z,101225.19
2018-10-17T16:00:39.093Z,101222.42
2018-10-17T16:03:06.200Z,101223.55
2018-10-17T16:05:33.267Z,101225.88
2018-10-17T16:08:00.962Z,101218.03
2018-10-17T16:10:28.110Z,101219.98
2018-10-17T16:12:55.176Z,101226.19
2018-10-17T16:15:22.284Z,101227.31
2018-10-17T16:17:49.454Z,101227.98
2018-10-17T16:20:16.735Z,101225.19
2018-10-17T16:22:44.111Z,101233.05
2018-10-17T16:25:11.155Z,101222.19
2018-10-17T16:27:38.292Z,101223.44
2018-10-17T16:30:08.041Z,101223.54
2018-10-17T16:32:35.487Z,101219.75
2018-10-17T16:35:02.574Z,101226.26
2018-10-17T16:37:29.637Z,101229.06
2018-10-17T16:39:56.700Z,101227.55
2018-10-17T16:42:24.051Z,101231.45
2018-10-17T16:44:51.151Z,101234.72
2018-10-17T16:47:18.246Z,101235.95
2018-10-17T16:49:45.375Z,101237.10
2018-10-17T16:52:12.417Z,101234.61
2018-10-17T16:54:39.529Z,101238.97
2018-10-17T16:57:07.946Z,101245.14
2018-10-17T16:59:35.352Z,101248.91
2018-10-17T17:02:02.438Z,101249.44
2018-10-17T17:04:29.694Z,101257.22
2018-10-17T17:06:56.850Z,101258.97
2018-10-17T17:09:23.958Z,101259.94
2018-10-17T17:11:51.089Z,101260.83
2018-10-17T17:14:18.405Z,101264.72
2018-10-17T17:16:46.415Z,101272.23
2018-10-17T17:19:14.001Z,101272.90
2018-10-17T17:21:41.270Z,101276.84
2018-10-17T17:24:08.401Z,101283.03
2018-10-17T17:26:35.541Z,101277.66
2018-10-17T17:29:02.683Z,101276.86
2018-10-17T17:31:29.787Z,101282.62
2018-10-17T17:33:56.984Z,101275.86
2018-10-17T17:36:24.088Z,101283.91
2018-10-17T17:38:51.247Z,101285.41
2018-10-17T17:41:18.379Z,101282.11
2018-10-17T17:43:45.620Z,101288.59
2018-10-17T17:46:12.761Z,101288.59
2018-10-17T17:48:39.832Z,101292.54
2018-10-17T17:51:06.915Z,101292.89
2018-10-17T17:53:33.979Z,101287.28
2018-10-17T17:56:01.073Z,101284.06
2018-10-17T17:58:28.264Z,101288.45
2018-10-17T18:00:55.281Z,101292.75
2018-10-17T18:03:22.487Z,101287.27
2018-10-17T18:05:56.667Z,101293.67
2018-10-17T18:08:24.057Z,101290.73
2018-10-17T18:10:51.132Z,101297.81
2018-10-17T18:13:18.203Z,101297.62
2018-10-17T18:15:45.689Z,101299.16
2018-10-17T18:18:13.015Z,101299.83
2018-10-17T18:20:40.109Z,101300.86
2018-10-17T18:23:07.233Z,101300.12
2018-10-17T18:25:34.404Z,101305.77
2018-10-17T18:28:02.378Z,101307.89
2018-10-17T18:30:29.428Z,101307.28
2018-10-17T18:32:56.578Z,101311.36
2018-10-17T18:35:23.672Z,101316.16
2018-10-17T18:37:50.756Z,101316.95
2018-10-17T18:40:18.010Z,101331.36
2018-10-17T18:42:44.984Z,101327.91
2018-10-17T18:45:12.068Z,101330.82
2018-10-17T18:47:39.538Z,101335.13
2018-10-17T18:50:06.899Z,101332.68
2018-10-17T18:52:33.962Z,101334.75
2018-10-17T18:55:01.079Z,101330.92
2018-10-17T18:57:28.249Z,101340.89
2018-10-17T18:59:55.326Z,101335.20
2018-10-17T19:02:22.398Z,101342.77
2018-10-17T19:04:49.480Z,101340.11
2018-10-17T19:07:16.960Z,101342.25
2018-10-17T19:09:44.075Z,101343.09
2018-10-17T19:12:11.314Z,101345.50
2018-10-17T19:14:38.631Z,101341.20
2018-10-17T19:17:06.727Z,101339.41
2018-10-17T19:19:34.565Z,101343.29
2018-10-17T19:22:01.714Z,101349.52
2018-10-17T19:24:28.817Z,101347.31
2018-10-17T19:26:55.917Z,101349.08
2018-10-17T19:29:23.004Z,101353.34
2018-10-17T19:31:50.198Z,101356.34
2018-10-17T19:34:17.380Z,101359.04
2018-10-17T19:36:44.558Z,101364.73
2018-10-17T19:39:12.741Z,101367.86
2018-10-17T19:41:40.276Z,101374.73
2018-10-17T19:44:07.870Z,101374.91
2018-10-17T19:46:34.999Z,101371.75
2018-10-17T19:49:02.153Z,101381.41
2018-10-17T19:51:36.132Z,101379.77
2018-10-17T19:54:03.272Z,101372.20
2018-10-17T19:56:30.567Z,101371.53
2018-10-17T19:58:58.223Z,101374.47
2018-10-17T20:01:26.096Z,101378.48
2018-10-17T20:03:53.164Z,101376.59
2018-10-17T20:06:20.412Z,101375.03
2018-10-17T20:08:47.668Z,101376.64
2018-10-17T20:11:14.768Z,101380.84
2018-10-17T20:13:41.841Z,101382.74
2018-10-17T20:16:09.223Z,101377.28
2018-10-17T20:18:36.607Z,101380.44
2018-10-17T20:21:03.757Z,101380.27
2018-10-17T20:23:31.116Z,101386.83
2018-10-17T20:25:58.202Z,101383.13
2018-10-17T20:28:25.324Z,101381.88
2018-10-17T20:30:52.807Z,101382.09
2018-10-17T20:33:20.052Z,101381.92
2018-10-17T20:35:47.215Z,101384.55
2018-10-17T20:38:14.636Z,101377.16
2018-10-17T20:40:41.948Z,101378.77
2018-10-17T20:43:09.020Z,101380.26
2018-10-17T20:45:37.421Z,101382.70
2018-10-17T20:48:04.574Z,101379.89
2018-10-17T20:50:32.266Z,101382.72
2018-10-17T20:52:59.894Z,101376.52
2018-10-17T20:55:27.055Z,101381.59
2018-10-17T20:57:54.143Z,101379.59
2018-10-17T21:00:21.802Z,101381.48
2018-10-17T21:02:49.216Z,101380.41
2018-10-17T21:05:17.071Z,101389.17
2018-10-17T21:07:44.602Z,101389.36
2018-10-17T21:10:12.968Z,101388.27
2018-10-17T21:12:40.051Z,101387.89
2018-10-17T21:15:08.008Z,101388.44
2018-10-17T21:17:35.355Z,101387.36
2018-10-17T21:20:02.543Z,101379.28
2018-10-17T21:22:30.163Z,101389.02
2018-10-17T21:24:57.252Z,101390.80
2018-10-17T21:27:24.857Z,101391.08
2018-10-17T21:29:52.544Z,101399.35
2018-10-17T21:32:20.162Z,101396.94
2018-10-17T21:34:47.304Z,101399.50
2018-10-17T21:37:14.843Z,101399.73
2018-10-17T21:39:42.124Z,101403.52
2018-10-17T21:42:09.631Z,101397.36
2018-10-17T21:44:36.707Z,101400.34
2018-10-17T21:47:04.271Z,101404.36
2018-10-17T21:49:31.603Z,101410.81
2018-10-17T21:51:58.760Z,101403.56
2018-10-17T21:54:25.824Z,101409.41
2018-10-17T21:56:52.923Z,101401.83
2018-10-17T21:59:19.999Z,101409.70
2018-10-17T22:01:47.097Z,101403.53
2018-10-17T22:04:14.253Z,101404.26
2018-10-17T22:06:41.305Z,101402.77
2018-10-17T22:09:09.210Z,101407.36
2018-10-17T22:11:36.359Z,101402.29
2018-10-17T22:14:03.557Z,101395.00
2018-10-17T22:16:36.456Z,101401.38
2018-10-17T22:19:03.720Z,101400.83
2018-10-17T22:21:30.737Z,101404.31
2018-10-17T22:23:57.928Z,101404.55
2018-10-17T22:26:25.047Z,101408.83
2018-10-17T22:28:52.209Z,101408.20
2018-10-17T22:31:20.128Z,101413.25
2018-10-17T22:33:47.313Z,101409.94
2018-10-17T22:36:14.396Z,101404.81
2018-10-17T22:38:41.832Z,101405.81
2018-10-17T22:41:08.965Z,101410.55
2018-10-17T22:43:36.087Z,101397.82
2018-10-17T22:46:03.291Z,101404.55
2018-10-17T22:48:30.436Z,101409.05
2018-10-17T22:50:57.592Z,101407.75
2018-10-17T22:53:24.687Z,101405.61
2018-10-17T22:55:51.800Z,101403.69
2018-10-17T22:58:18.835Z,101404.52
2018-10-17T23:00:45.922Z,101400.64
2018-10-17T23:03:13.307Z,101401.22
2018-10-17T23:05:40.386Z,101402.69
2018-10-17T23:08:07.568Z,101403.73
2018-10-17T23:10:34.678Z,101403.55
2018-10-17T23:13:01.805Z,101390.75
2018-10-17T23:15:28.895Z,101399.84
2018-10-17T23:17:56.042Z,101397.40
2018-10-17T23:20:23.197Z,101397.79
2018-10-17T23:22:50.304Z,101405.97
2018-10-17T23:25:17.476Z,101397.67
2018-10-17T23:27:44.556Z,101400.31
2018-10-17T23:30:11.635Z,101398.47
2018-10-17T23:32:39.320Z,101396.47
2018-10-17T23:35:06.502Z,101395.87
2018-10-17T23:37:33.837Z,101396.94
2018-10-17T23:40:00.915Z,101399.70
2018-10-17T23:42:28.106Z,101394.90
2018-10-17T23:44:55.260Z,101404.70
2018-10-17T23:47:22.420Z,101400.20
2018-10-17T23:49:49.568Z,101406.70
2018-10-17T23:52:17.033Z,101409.56
2018-10-17T23:54:44.184Z,101402.87
2018-10-17T23:57:11.260Z,101409.23
2018-10-17T23:59:38.388Z,101408.89
